Time;durP1;ratioP1;P1;durP2;ratioP2;P2;SDS_P1;SDS_P2;PMS_P1;PMS_P2;Temp;Humidity;BMP_temperature;BMP_pressure;BME280_temperature;BME280_humidity;BME280_pressure;Samples;Min_cycle;Max_cycle;Signal;HPM_P1;HPM_P2
2022/01/08 00:01:26;;;;;;;;;;;4.10;86.00;;;;;;5012897;28;19914;-87
2022/01/08 00:03:52;;;;;;;;;;;4.10;86.10;;;;;;5013218;28;20465;-88
2022/01/08 00:06:17;;;;;;;;;;;4.00;86.10;;;;;;5012279;28;20642;-87
2022/01/08 00:08:43;;;;;;;;;;;4.10;85.90;;;;;;5010834;28;19913;-87
2022/01/08 00:11:13;;;;;;;;;;;4.10;85.80;;;;;;5011679;28;19918;-87
2022/01/08 00:13:40;;;;;;;;;;;3.90;86.00;;;;;;5011600;28;20334;-87
2022/01/08 00:16:05;;;;;;;;;;;3.90;86.10;;;;;;5013929;28;19913;-79
2022/01/08 00:18:31;;;;;;;;;;;3.90;86.30;;;;;;5016509;28;20004;-79
2022/01/08 00:20:56;;;;;;;;;;;3.90;86.40;;;;;;5016738;28;19917;-87
2022/01/08 00:23:22;;;;;;;;;;;3.90;86.60;;;;;;5013916;28;20358;-79
2022/01/08 00:25:47;;;;;;;;;;;3.90;86.70;;;;;;5017015;28;19913;-85
2022/01/08 00:28:13;;;;;;;;;;;4.00;86.70;;;;;;5023216;28;19921;-86
2022/01/08 00:30:39;;;;;;;;;;;4.00;86.70;;;;;;5026317;28;19909;-87
2022/01/08 00:33:04;;;;;;;;;;;3.90;86.70;;;;;;5030461;28;19950;-87
2022/01/08 00:35:31;;;;;;;;;;;4.00;86.80;;;;;;5018511;28;20024;-86
2022/01/08 00:37:57;;;;;;;;;;;4.00;86.30;;;;;;5019367;28;19913;-87
2022/01/08 00:40:23;;;;;;;;;;;4.00;86.10;;;;;;5020247;28;20064;-86
2022/01/08 00:42:48;;;;;;;;;;;4.00;86.30;;;;;;5016987;28;19913;-86
2022/01/08 00:45:14;;;;;;;;;;;4.00;86.60;;;;;;5005580;28;20609;-86
2022/01/08 00:47:39;;;;;;;;;;;4.00;86.80;;;;;;5010142;28;19909;-86
2022/01/08 00:50:05;;;;;;;;;;;4.00;86.70;;;;;;5018076;28;19960;-87
2022/01/08 00:52:31;;;;;;;;;;;4.00;86.80;;;;;;5019788;28;19918;-86
2022/01/08 00:54:56;;;;;;;;;;;4.00;86.40;;;;;;5018330;28;19917;-86
2022/01/08 00:57:22;;;;;;;;;;;4.00;86.20;;;;;;5016631;28;19971;-87
2022/01/08 00:59:47;;;;;;;;;;;3.90;86.50;;;;;;5016456;28;19968;-86
2022/01/08 01:02:13;;;;;;;;;;;4.00;86.80;;;;;;5019007;28;19914;-86
2022/01/08 01:04:38;;;;;;;;;;;4.00;86.70;;;;;;5016087;28;19913;-87
2022/01/08 01:07:05;;;;;;;;;;;4.00;86.70;;;;;;5016483;28;19992;-86
2022/01/08 01:09:30;;;;;;;;;;;4.00;86.50;;;;;;5018792;28;19996;-87
2022/01/08 01:11:57;;;;;;;;;;;3.90;86.70;;;;;;5014199;28;20318;-86
2022/01/08 01:14:23;;;;;;;;;;;4.00;86.30;;;;;;5013768;28;19913;-86
2022/01/08 01:16:49;;;;;;;;;;;3.90;86.40;;;;;;5010859;28;19963;-86
2022/01/08 01:19:14;;;;;;;;;;;3.70;86.60;;;;;;5010010;28;19913;-85
2022/01/08 01:21:40;;;;;;;;;;;3.70;87.10;;;;;;5013063;28;19914;-86
2022/01/08 01:24:12;;;;;;;;;;;3.70;87.10;;;;;;5011992;28;20275;-86
2022/01/08 01:26:44;;;;;;;;;;;3.60;87.20;;;;;;5011321;28;19917;-86
2022/01/08 01:29:32;;;;;;;;;;;3.60;87.30;;;;;;5013899;28;20270;-86
2022/01/08 01:48:20;;;;;;;;;;;3.30;87.90;;;;;;5062594;28;19924;-86
2022/01/08 01:50:45;;;;;;;;;;;3.30;87.90;;;;;;5035188;28;19913;-86
2022/01/08 01:53:11;;;;;;;;;;;3.30;88.00;;;;;;5034489;28;20007;-86
2022/01/08 01:55:36;;;;;;;;;;;3.30;88.10;;;;;;5065477;28;19913;-85
2022/01/08 01:58:05;;;;;;;;;;;3.20;88.00;;;;;;5048485;28;20417;-84
2022/01/08 02:00:31;;;;;;;;;;;3.20;88.10;;;;;;5054828;28;19920;-83
2022/01/08 02:02:57;;;;;;;;;;;3.20;88.10;;;;;;5048011;28;19963;-83
2022/01/08 02:05:22;;;;;;;;;;;3.20;88.00;;;;;;5043643;28;19909;-83
2022/01/08 02:07:48;;;;;;;;;;;3.20;87.90;;;;;;5039135;28;19913;-84
2022/01/08 02:10:13;;;;;;;;;;;3.10;88.00;;;;;;5036494;28;19932;-84
2022/01/08 02:12:39;;;;;;;;;;;3.10;88.20;;;;;;5050655;28;20363;-85
2022/01/08 02:15:04;;;;;;;;;;;3.00;88.40;;;;;;5044068;28;19913;-84
2022/01/08 02:17:30;;;;;;;;;;;3.10;88.20;;;;;;5037342;28;19919;-84
2022/01/08 02:19:56;;;;;;;;;;;3.10;88.00;;;;;;5035748;28;19920;-84
2022/01/08 02:22:21;;;;;;;;;;;3.10;88.00;;;;;;5054978;28;19912;-84
2022/01/08 02:24:47;;;;;;;;;;;3.10;88.30;;;;;;5036731;28;19954;-84
2022/01/08 02:27:14;;;;;;;;;;;3.10;88.30;;;;;;5035169;28;19916;-85
2022/01/08 02:29:39;;;;;;;;;;;3.10;88.20;;;;;;5038305;28;19913;-85
2022/01/08 02:32:05;;;;;;;;;;;3.00;88.50;;;;;;5058752;28;19912;-85
2022/01/08 02:34:31;;;;;;;;;;;3.00;88.60;;;;;;5038065;28;20306;-85
2022/01/08 02:36:57;;;;;;;;;;;2.90;88.50;;;;;;5056658;28;19920;-84
2022/01/08 02:39:23;;;;;;;;;;;2.90;88.70;;;;;;5030586;28;19913;-85
2022/01/08 02:41:53;;;;;;;;;;;2.80;88.90;;;;;;5045847;28;20401;-85
2022/01/08 02:44:19;;;;;;;;;;;2.90;88.90;;;;;;5045161;28;20290;-85
2022/01/08 02:46:45;;;;;;;;;;;2.90;89.00;;;;;;5046072;28;20011;-85
2022/01/08 02:49:10;;;;;;;;;;;3.00;89.00;;;;;;5061990;28;20026;-85
2022/01/08 02:51:35;;;;;;;;;;;3.00;88.70;;;;;;5045677;28;20428;-85
2022/01/08 02:54:02;;;;;;;;;;;2.90;88.70;;;;;;5047317;28;19913;-85
2022/01/08 02:56:28;;;;;;;;;;;3.00;88.70;;;;;;5048338;28;20323;-85
2022/01/08 02:58:53;;;;;;;;;;;2.90;88.80;;;;;;5043424;28;19919;-85
2022/01/08 03:01:19;;;;;;;;;;;2.90;88.80;;;;;;5043565;28;19917;-85
2022/01/08 03:03:44;;;;;;;;;;;2.90;88.50;;;;;;5060447;28;19909;-84
2022/01/08 03:06:10;;;;;;;;;;;2.80;88.30;;;;;;5043228;28;19971;-85
2022/01/08 03:08:35;;;;;;;;;;;2.70;88.60;;;;;;5041856;28;19940;-84
2022/01/08 03:11:01;;;;;;;;;;;2.70;88.60;;;;;;5048010;28;19963;-84
2022/01/08 03:13:26;;;;;;;;;;;2.60;88.80;;;;;;5052236;28;19913;-85
2022/01/08 03:15:52;;;;;;;;;;;2.70;89.00;;;;;;5045699;28;19988;-85
2022/01/08 03:18:17;;;;;;;;;;;2.70;89.00;;;;;;5045356;28;20034;-85
2022/01/08 03:20:49;;;;;;;;;;;2.80;89.00;;;;;;5042337;28;19913;-84
2022/01/08 03:23:17;;;;;;;;;;;2.60;89.00;;;;;;5042222;28;19962;-85
2022/01/08 03:25:44;;;;;;;;;;;2.70;88.90;;;;;;5041615;28;19912;-85
2022/01/08 03:28:11;;;;;;;;;;;2.70;89.00;;;;;;5056282;28;19916;-85
2022/01/08 03:30:38;;;;;;;;;;;2.60;89.10;;;;;;5031010;28;19913;-85
2022/01/08 03:33:03;;;;;;;;;;;2.60;89.20;;;;;;5040712;28;19952;-85
2022/01/08 03:35:28;;;;;;;;;;;2.60;89.00;;;;;;5041734;28;19966;-84
2022/01/08 03:37:54;;;;;;;;;;;2.70;89.00;;;;;;5044559;28;19932;-83
2022/01/08 03:40:19;;;;;;;;;;;2.60;89.10;;;;;;5065394;28;19925;-84
2022/01/08 03:42:45;;;;;;;;;;;2.60;89.10;;;;;;5044392;28;19920;-84
2022/01/08 03:45:11;;;;;;;;;;;2.60;89.00;;;;;;5061524;28;19912;-85
2022/01/08 03:50:14;;;;;;;;;;;2.60;89.10;;;;;;5053022;28;20079;-83
2022/01/08 03:52:39;;;;;;;;;;;2.60;89.00;;;;;;5036486;28;19952;-84
2022/01/08 03:55:05;;;;;;;;;;;2.60;88.90;;;;;;5040112;28;19913;-84
2022/01/08 03:57:30;;;;;;;;;;;2.60;89.00;;;;;;5040518;28;19920;-84
2022/01/08 03:59:56;;;;;;;;;;;2.60;88.90;;;;;;5042025;28;19983;-84
2022/01/08 04:02:21;;;;;;;;;;;2.50;89.00;;;;;;5042881;28;19978;-84
2022/01/08 04:04:48;;;;;;;;;;;2.50;88.90;;;;;;5039260;28;19920;-84
2022/01/08 04:07:14;;;;;;;;;;;2.50;89.10;;;;;;5054621;28;19970;-84
2022/01/08 04:09:39;;;;;;;;;;;2.50;89.00;;;;;;5039779;28;20020;-84
2022/01/08 04:12:06;;;;;;;;;;;2.50;89.10;;;;;;5040845;28;19944;-84
2022/01/08 04:14:42;;;;;;;;;;;2.50;89.00;;;;;;5028375;28;19928;-84
2022/01/08 04:17:08;;;;;;;;;;;2.40;89.20;;;;;;5053056;28;19916;-84
2022/01/08 04:19:33;;;;;;;;;;;2.40;89.00;;;;;;5057463;28;19935;-84
2022/01/08 04:21:59;;;;;;;;;;;2.50;89.00;;;;;;5067691;28;19912;-84
2022/01/08 04:24:25;;;;;;;;;;;2.40;89.10;;;;;;5044593;28;19908;-83
2022/01/08 04:26:50;;;;;;;;;;;2.40;89.20;;;;;;5057126;28;19900;-84
2022/01/08 04:29:16;;;;;;;;;;;2.40;89.20;;;;;;5048023;28;20399;-84
2022/01/08 04:31:42;;;;;;;;;;;2.40;89.10;;;;;;5046107;28;20421;-85
2022/01/08 04:34:07;;;;;;;;;;;2.40;88.90;;;;;;5061247;28;19916;-85
2022/01/08 04:36:33;;;;;;;;;;;2.40;89.10;;;;;;5065698;28;19951;-84
2022/01/08 04:38:58;;;;;;;;;;;2.40;89.20;;;;;;5040108;28;20291;-84
2022/01/08 04:41:24;;;;;;;;;;;2.50;89.40;;;;;;5037322;28;19925;-84
2022/01/08 04:43:49;;;;;;;;;;;2.40;89.30;;;;;;5036391;28;19913;-84
2022/01/08 04:46:15;;;;;;;;;;;2.50;89.20;;;;;;5037174;28;19920;-85
2022/01/08 04:48:41;;;;;;;;;;;2.40;89.00;;;;;;5037710;28;19915;-84
2022/01/08 04:51:08;;;;;;;;;;;2.40;88.80;;;;;;5051883;28;20437;-85
2022/01/08 04:53:33;;;;;;;;;;;2.40;89.00;;;;;;5035804;28;20000;-85
2022/01/08 04:55:59;;;;;;;;;;;2.40;88.90;;;;;;5036191;28;20391;-85
2022/01/08 04:58:24;;;;;;;;;;;2.40;88.90;;;;;;5042087;28;20375;-85
2022/01/08 05:00:50;;;;;;;;;;;2.40;89.10;;;;;;5060328;28;19917;-84
2022/01/08 05:03:15;;;;;;;;;;;2.40;89.00;;;;;;5040700;28;19905;-84
2022/01/08 05:05:41;;;;;;;;;;;2.50;88.80;;;;;;5064409;28;19956;-85
2022/01/08 05:08:07;;;;;;;;;;;2.50;88.70;;;;;;5064784;28;19923;-84
2022/01/08 05:10:34;;;;;;;;;;;2.30;88.90;;;;;;5046694;28;19916;-84
2022/01/08 05:13:04;;;;;;;;;;;2.30;89.10;;;;;;5037459;28;20461;-85
2022/01/08 05:15:33;;;;;;;;;;;2.30;89.30;;;;;;5040743;28;20008;-85
2022/01/08 05:17:58;;;;;;;;;;;2.30;89.20;;;;;;5041805;28;19959;-83
2022/01/08 05:20:28;;;;;;;;;;;2.30;89.20;;;;;;5029958;28;19933;-85
2022/01/08 05:22:59;;;;;;;;;;;2.40;89.10;;;;;;5060003;28;19917;-84
2022/01/08 05:25:25;;;;;;;;;;;2.40;89.00;;;;;;5048171;28;19932;-85
2022/01/08 05:27:51;;;;;;;;;;;2.30;89.00;;;;;;5043190;28;19912;-83
2022/01/08 05:30:18;;;;;;;;;;;2.20;88.80;;;;;;5044206;28;19924;-85
2022/01/08 05:32:43;;;;;;;;;;;2.20;88.90;;;;;;5047663;28;20343;-85
2022/01/08 05:35:09;;;;;;;;;;;2.10;89.10;;;;;;5064320;28;20007;-85
2022/01/08 05:37:34;;;;;;;;;;;2.10;89.40;;;;;;5045602;28;20422;-84
2022/01/08 05:40:00;;;;;;;;;;;2.10;89.30;;;;;;5044322;28;19984;-84
2022/01/08 05:42:25;;;;;;;;;;;2.20;89.40;;;;;;5045557;28;19916;-84
2022/01/08 05:44:52;;;;;;;;;;;2.20;89.10;;;;;;5062111;28;19909;-85
2022/01/08 05:47:20;;;;;;;;;;;2.20;89.10;;;;;;5043264;28;19916;-84
2022/01/08 05:49:45;;;;;;;;;;;2.20;89.20;;;;;;5058802;28;20395;-85
2022/01/08 05:52:11;;;;;;;;;;;2.20;89.00;;;;;;5040264;28;19928;-85
2022/01/08 05:54:36;;;;;;;;;;;2.10;89.00;;;;;;5059975;28;19970;-85
2022/01/08 05:57:02;;;;;;;;;;;2.10;89.20;;;;;;5058673;28;20359;-83
2022/01/08 05:59:27;;;;;;;;;;;2.10;89.30;;;;;;5041056;28;20003;-84
2022/01/08 06:01:53;;;;;;;;;;;2.10;89.30;;;;;;5029306;28;19944;-84
2022/01/08 06:04:19;;;;;;;;;;;2.10;89.20;;;;;;5041826;28;19916;-84
2022/01/08 06:06:45;;;;;;;;;;;2.00;89.30;;;;;;5061651;28;19913;-84
2022/01/08 06:09:11;;;;;;;;;;;2.00;89.40;;;;;;5042221;28;19948;-84
2022/01/08 06:11:36;;;;;;;;;;;2.10;89.50;;;;;;5032797;28;19915;-85
2022/01/08 06:14:02;;;;;;;;;;;2.00;89.30;;;;;;5041944;28;19917;-83
2022/01/08 06:16:33;;;;;;;;;;;2.10;89.30;;;;;;5060064;28;19924;-84
2022/01/08 06:18:59;;;;;;;;;;;2.10;89.20;;;;;;5041497;28;19921;-84
2022/01/08 06:21:25;;;;;;;;;;;2.10;89.20;;;;;;5060029;28;19924;-84
2022/01/08 06:23:50;;;;;;;;;;;2.00;89.10;;;;;;5057317;28;19913;-84
2022/01/08 06:26:16;;;;;;;;;;;2.00;89.30;;;;;;5060936;28;19975;-84
2022/01/08 06:28:41;;;;;;;;;;;1.90;89.20;;;;;;5050789;28;19928;-82
2022/01/08 06:31:07;;;;;;;;;;;2.00;89.20;;;;;;5054835;28;19921;-85
2022/01/08 06:33:32;;;;;;;;;;;2.00;89.10;;;;;;5049551;28;19913;-84
2022/01/08 06:35:57;;;;;;;;;;;2.10;89.20;;;;;;5045479;28;19949;-83
2022/01/08 06:38:23;;;;;;;;;;;2.00;89.10;;;;;;5059945;28;19909;-84
2022/01/08 06:40:48;;;;;;;;;;;2.00;89.20;;;;;;5062349;28;20666;-84
2022/01/08 06:43:14;;;;;;;;;;;2.00;89.30;;;;;;5043656;28;19927;-83
2022/01/08 06:45:39;;;;;;;;;;;2.00;89.30;;;;;;5042458;28;19916;-84
2022/01/08 06:48:05;;;;;;;;;;;1.90;89.30;;;;;;5072632;28;19936;-83
2022/01/08 06:50:30;;;;;;;;;;;1.90;89.20;;;;;;5071733;28;19905;-83
2022/01/08 06:52:56;;;;;;;;;;;1.90;89.30;;;;;;5050377;28;19913;-85
2022/01/08 06:55:21;;;;;;;;;;;2.00;89.20;;;;;;5075237;28;20012;-84
2022/01/08 06:57:47;;;;;;;;;;;1.90;89.20;;;;;;5056924;28;19913;-83
2022/01/08 07:00:13;;;;;;;;;;;1.90;89.10;;;;;;5066721;28;19932;-84
2022/01/08 07:02:38;;;;;;;;;;;1.90;89.20;;;;;;5063292;28;19912;-84
2022/01/08 07:05:04;;;;;;;;;;;2.00;89.20;;;;;;5065312;28;19937;-84
2022/01/08 07:07:29;;;;;;;;;;;2.00;88.90;;;;;;5044610;28;19913;-84
2022/01/08 07:09:55;;;;;;;;;;;2.00;89.10;;;;;;5062635;28;19917;-83
2022/01/08 07:12:20;;;;;;;;;;;2.00;88.90;;;;;;5054591;28;19913;-84
2022/01/08 07:14:46;;;;;;;;;;;2.00;89.10;;;;;;5034978;28;19927;-84
2022/01/08 07:17:11;;;;;;;;;;;2.10;88.80;;;;;;5033896;28;20004;-84
2022/01/08 07:19:37;;;;;;;;;;;2.10;88.80;;;;;;5037041;28;20454;-84
2022/01/08 07:22:02;;;;;;;;;;;2.00;88.80;;;;;;5057257;28;19919;-84
2022/01/08 07:24:28;;;;;;;;;;;2.00;88.70;;;;;;5037628;28;19913;-84
2022/01/08 07:26:53;;;;;;;;;;;2.10;88.70;;;;;;5037568;28;19920;-83
2022/01/08 07:29:19;;;;;;;;;;;2.00;88.60;;;;;;5039031;28;19916;-84
2022/01/08 07:31:44;;;;;;;;;;;2.00;88.80;;;;;;5039351;28;19909;-84
2022/01/08 07:34:10;;;;;;;;;;;2.10;88.80;;;;;;5054393;28;19917;-84
2022/01/08 07:36:35;;;;;;;;;;;2.00;89.00;;;;;;5040160;28;20046;-84
2022/01/08 07:39:01;;;;;;;;;;;2.00;89.00;;;;;;5057743;28;19912;-84
2022/01/08 07:41:26;;;;;;;;;;;2.00;88.90;;;;;;5046853;28;19917;-84
2022/01/08 07:43:54;;;;;;;;;;;2.00;88.80;;;;;;5043076;28;19917;-84
2022/01/08 07:46:19;;;;;;;;;;;2.00;89.10;;;;;;5056987;22;19929;-86
2022/01/08 07:48:45;;;;;;;;;;;2.00;89.10;;;;;;5028135;28;20244;-86
2022/01/08 07:51:10;;;;;;;;;;;2.00;89.00;;;;;;5028100;28;20410;-92
2022/01/08 07:53:39;;;;;;;;;;;2.00;89.10;;;;;;5033295;28;19960;-88
2022/01/08 07:56:05;;;;;;;;;;;1.90;89.10;;;;;;5025849;28;19913;-86
2022/01/08 07:58:33;;;;;;;;;;;2.00;89.30;;;;;;5027157;28;19916;-92
2022/01/08 08:00:58;;;;;;;;;;;2.00;89.30;;;;;;4995152;28;19930;-88
2022/01/08 08:03:25;;;;;;;;;;;2.10;89.30;;;;;;5006880;28;20020;-86
2022/01/08 08:05:50;;;;;;;;;;;2.10;89.20;;;;;;5029210;22;19929;-85
2022/01/08 08:08:16;;;;;;;;;;;2.10;89.30;;;;;;5029433;28;19913;-87
2022/01/08 08:10:43;;;;;;;;;;;2.10;89.20;;;;;;5015678;28;19917;-86
2022/01/08 08:13:08;;;;;;;;;;;2.10;89.20;;;;;;5034265;28;19916;-86
2022/01/08 08:15:34;;;;;;;;;;;2.10;89.30;;;;;;5010923;28;19913;-88
2022/01/08 08:17:59;;;;;;;;;;;2.10;89.20;;;;;;5008568;28;19919;-88
2022/01/08 08:20:25;;;;;;;;;;;2.20;89.30;;;;;;5025800;28;20016;-87
2022/01/08 08:22:50;;;;;;;;;;;2.30;89.30;;;;;;5015311;28;19920;-87
2022/01/08 08:25:17;;;;;;;;;;;2.40;89.00;;;;;;5015000;28;19968;-87
2022/01/08 08:27:43;;;;;;;;;;;2.40;88.70;;;;;;5013881;28;20719;-87
2022/01/08 08:30:09;;;;;;;;;;;2.50;88.80;;;;;;5014833;28;19932;-87
2022/01/08 08:32:35;;;;;;;;;;;2.50;88.60;;;;;;5014447;28;20468;-87
2022/01/08 08:35:01;;;;;;;;;;;2.50;88.50;;;;;;5023683;28;19914;-86
2022/01/08 08:37:26;;;;;;;;;;;2.60;88.40;;;;;;5015588;28;19953;-88
2022/01/08 08:39:52;;;;;;;;;;;2.60;88.50;;;;;;5018828;28;19913;-87
2022/01/08 08:42:17;;;;;;;;;;;2.70;88.20;;;;;;5046193;28;20015;-87
2022/01/08 08:44:42;;;;;;;;;;;2.80;88.30;;;;;;5017915;28;19925;-86
2022/01/08 08:47:08;;;;;;;;;;;2.80;88.20;;;;;;5035331;28;20316;-87
2022/01/08 08:49:34;;;;;;;;;;;2.80;88.20;;;;;;5026990;28;19913;-87
2022/01/08 08:52:00;;;;;;;;;;;2.80;87.90;;;;;;5036513;28;20011;-88
2022/01/08 08:54:26;;;;;;;;;;;2.80;87.70;;;;;;5035270;28;19935;-87
2022/01/08 08:56:52;;;;;;;;;;;2.90;87.90;;;;;;5017164;28;19929;-87
2022/01/08 08:59:17;;;;;;;;;;;2.90;87.90;;;;;;5020761;28;19943;-89
2022/01/08 09:01:43;;;;;;;;;;;2.90;87.80;;;;;;5025101;28;19921;-90
2022/01/08 09:04:08;;;;;;;;;;;3.00;87.60;;;;;;5028663;28;19980;-88
2022/01/08 09:06:34;;;;;;;;;;;3.00;87.60;;;;;;5012559;28;19994;-88
2022/01/08 09:08:59;;;;;;;;;;;3.10;87.60;;;;;;5028039;28;19913;-87
2022/01/08 09:11:25;;;;;;;;;;;3.20;87.40;;;;;;5013410;28;19921;-87
2022/01/08 09:13:51;;;;;;;;;;;3.30;86.90;;;;;;5023905;28;19960;-87
2022/01/08 09:16:17;;;;;;;;;;;3.30;86.90;;;;;;5025118;28;19913;-87
2022/01/08 09:18:43;;;;;;;;;;;3.30;86.40;;;;;;5002369;28;20080;-89
2022/01/08 09:21:08;;;;;;;;;;;3.40;86.50;;;;;;5000776;28;20004;-88
2022/01/08 09:23:34;;;;;;;;;;;3.40;86.40;;;;;;5014273;28;19913;-86
2022/01/08 09:26:02;;;;;;;;;;;3.40;86.40;;;;;;4996929;28;20286;-88
2022/01/08 09:28:30;;;;;;;;;;;3.50;86.60;;;;;;5012706;28;19913;-88
2022/01/08 09:30:56;;;;;;;;;;;3.60;86.00;;;;;;5030581;28;19913;-87
2022/01/08 09:33:22;;;;;;;;;;;3.50;86.20;;;;;;5016760;28;19996;-85
2022/01/08 09:35:47;;;;;;;;;;;3.60;86.10;;;;;;5021525;28;20085;-86
2022/01/08 09:38:13;;;;;;;;;;;3.60;86.30;;;;;;5014055;28;19924;-84
2022/01/08 09:40:39;;;;;;;;;;;3.70;85.90;;;;;;5011778;28;19928;-85
2022/01/08 09:43:04;;;;;;;;;;;3.60;85.60;;;;;;5020033;28;19913;-82
2022/01/08 09:45:30;;;;;;;;;;;3.50;85.80;;;;;;5014584;28;20317;-81
2022/01/08 09:47:56;;;;;;;;;;;3.50;86.00;;;;;;5010949;28;20165;-81
2022/01/08 09:50:21;;;;;;;;;;;3.60;86.60;;;;;;5024376;28;20420;-81
2022/01/08 09:52:47;;;;;;;;;;;3.60;86.10;;;;;;5029814;28;19917;-81
2022/01/08 09:55:12;;;;;;;;;;;3.60;86.00;;;;;;5011567;28;19920;-81
2022/01/08 09:57:38;;;;;;;;;;;3.60;86.00;;;;;;5033052;28;19913;-81
2022/01/08 10:00:14;;;;;;;;;;;3.70;86.10;;;;;;5029805;28;19924;-81
2022/01/08 10:02:40;;;;;;;;;;;3.70;85.80;;;;;;5005730;28;19928;-80
2022/01/08 10:05:10;;;;;;;;;;;3.70;85.80;;;;;;5032862;28;19939;-81
2022/01/08 10:07:35;;;;;;;;;;;3.70;85.90;;;;;;5024427;28;19921;-80
2022/01/08 10:10:10;;;;;;;;;;;3.70;86.10;;;;;;5039602;28;19913;-80
2022/01/08 10:12:42;;;;;;;;;;;3.70;86.10;;;;;;5039146;28;19962;-80
2022/01/08 10:17:52;;;;;;;;;;;3.80;85.50;;;;;;5040643;28;19927;-80
2022/01/08 10:20:28;;;;;;;;;;;3.80;85.50;;;;;;5023232;28;19956;-82
2022/01/08 10:23:00;;;;;;;;;;;3.80;85.90;;;;;;5025815;28;19928;-82
2022/01/08 10:25:25;;;;;;;;;;;3.90;86.00;;;;;;5038544;28;19951;-83
2022/01/08 10:27:50;;;;;;;;;;;3.90;85.70;;;;;;5044148;28;19941;-82
2022/01/08 10:30:23;;;;;;;;;;;3.80;85.70;;;;;;5025253;28;19928;-79
2022/01/08 10:32:55;;;;;;;;;;;3.90;85.90;;;;;;5019852;28;19951;-83
2022/01/08 10:35:41;;;;;;;;;;;3.90;85.60;;;;;;5022369;28;19916;-83
2022/01/08 10:38:06;;;;;;;;;;;3.90;85.50;;;;;;5015019;28;19925;-83
2022/01/08 10:40:32;;;;;;;;;;;4.00;85.50;;;;;;5032526;28;19917;-83
2022/01/08 10:42:58;;;;;;;;;;;3.90;85.00;;;;;;5016226;28;19932;-83
2022/01/08 10:45:25;;;;;;;;;;;3.90;85.20;;;;;;5017418;28;19913;-83
2022/01/08 10:48:02;;;;;;;;;;;4.00;85.20;;;;;;5017435;28;19937;-84
2022/01/08 10:50:28;;;;;;;;;;;3.90;85.40;;;;;;5031228;28;19920;-84
2022/01/08 10:52:53;;;;;;;;;;;4.00;85.60;;;;;;5017246;28;20376;-83
2022/01/08 10:55:32;;;;;;;;;;;4.10;85.60;;;;;;5037354;28;20369;-83
2022/01/08 10:57:57;;;;;;;;;;;4.10;85.40;;;;;;5032562;28;20412;-83
2022/01/08 11:00:30;;;;;;;;;;;4.20;84.60;;;;;;5016765;28;19957;-82
2022/01/08 11:02:56;;;;;;;;;;;4.30;84.40;;;;;;5014015;28;19920;-81
2022/01/08 11:05:21;;;;;;;;;;;4.20;84.40;;;;;;5016684;28;19921;-83
2022/01/08 11:07:47;;;;;;;;;;;4.30;84.20;;;;;;5018178;28;19920;-85
2022/01/08 11:10:22;;;;;;;;;;;4.20;83.80;;;;;;5016045;28;19966;-83
2022/01/08 11:12:48;;;;;;;;;;;4.20;84.40;;;;;;5018993;28;19917;-84
2022/01/08 11:15:35;;;;;;;;;;;4.10;84.00;;;;;;5017372;28;19957;-83
2022/01/08 11:18:00;;;;;;;;;;;4.20;84.40;;;;;;5027037;28;19917;-84
2022/01/08 11:20:27;;;;;;;;;;;4.10;84.00;;;;;;5024401;28;19917;-85
2022/01/08 11:22:53;;;;;;;;;;;4.30;84.20;;;;;;5017805;28;19924;-84
2022/01/08 11:25:23;;;;;;;;;;;4.30;83.70;;;;;;5023504;28;20417;-81
2022/01/08 11:28:07;;;;;;;;;;;4.30;83.50;;;;;;5022419;28;19917;-86
2022/01/08 11:30:37;;;;;;;;;;;4.30;83.30;;;;;;5015749;28;19913;-82
2022/01/08 11:33:08;;;;;;;;;;;4.30;83.50;;;;;;5021127;28;19920;-83
2022/01/08 11:35:36;;;;;;;;;;;4.30;83.70;;;;;;5035431;28;19914;-82
2022/01/08 11:38:04;;;;;;;;;;;4.50;82.90;;;;;;5025846;28;19913;-85
2022/01/08 11:40:30;;;;;;;;;;;4.50;83.10;;;;;;5017498;28;20397;-82
2022/01/08 11:42:59;;;;;;;;;;;4.50;83.30;;;;;;5021302;28;19913;-84
2022/01/08 11:45:26;;;;;;;;;;;4.50;82.90;;;;;;5032176;28;20004;-83
2022/01/08 11:47:53;;;;;;;;;;;4.60;82.60;;;;;;5025186;28;19925;-83
2022/01/08 11:50:23;;;;;;;;;;;4.60;82.10;;;;;;5021845;28;19914;-85
2022/01/08 11:53:07;;;;;;;;;;;4.50;82.60;;;;;;5049146;28;19924;-87
2022/01/08 11:55:33;;;;;;;;;;;4.60;82.50;;;;;;5047245;28;19975;-89
2022/01/08 11:58:18;;;;;;;;;;;4.80;81.70;;;;;;5025432;28;19927;-87
2022/01/08 12:00:48;;;;;;;;;;;4.80;81.20;;;;;;5029355;28;19940;-93
2022/01/08 12:03:20;;;;;;;;;;;4.80;81.30;;;;;;5024785;28;19917;-89
2022/01/08 12:05:45;;;;;;;;;;;4.90;81.20;;;;;;5034718;28;19905;-89
2022/01/08 12:08:16;;;;;;;;;;;5.10;80.70;;;;;;5036553;28;19960;-89
2022/01/08 12:10:59;;;;;;;;;;;5.10;80.50;;;;;;5031981;28;19913;-88
2022/01/08 12:13:44;;;;;;;;;;;5.10;79.90;;;;;;5010533;28;20059;-87
2022/01/08 12:16:28;;;;;;;;;;;5.00;79.50;;;;;;5028757;28;19913;-88
2022/01/08 12:18:55;;;;;;;;;;;5.00;78.90;;;;;;5027884;28;20583;-88
2022/01/08 12:21:33;;;;;;;;;;;4.80;79.00;;;;;;5013658;28;19917;-88
2022/01/08 12:23:59;;;;;;;;;;;4.80;79.60;;;;;;5027700;28;19917;-88
2022/01/08 12:26:26;;;;;;;;;;;5.00;78.60;;;;;;5009130;28;20028;-88
2022/01/08 12:28:53;;;;;;;;;;;5.00;78.20;;;;;;5029125;28;20366;-87
2022/01/08 12:31:28;;;;;;;;;;;4.90;78.60;;;;;;5031823;28;19920;-87
2022/01/08 12:34:15;;;;;;;;;;;5.00;78.40;;;;;;5030881;28;19917;-87
2022/01/08 12:36:58;;;;;;;;;;;5.00;78.50;;;;;;5022343;28;19914;-80
2022/01/08 12:39:41;;;;;;;;;;;5.10;77.30;;;;;;5028208;28;19921;-80
2022/01/08 12:42:30;;;;;;;;;;;4.90;77.80;;;;;;5014584;28;19921;-80
2022/01/08 12:45:07;;;;;;;;;;;4.90;78.40;;;;;;5008959;28;19914;-80
2022/01/08 12:47:42;;;;;;;;;;;5.10;77.20;;;;;;5014208;28;19962;-79
2022/01/08 12:50:23;;;;;;;;;;;5.10;76.70;;;;;;5029150;28;19921;-80
2022/01/08 12:53:11;;;;;;;;;;;5.00;77.10;;;;;;5011650;28;19917;-80
2022/01/08 12:55:42;;;;;;;;;;;5.00;76.90;;;;;;5030121;28;19920;-80
2022/01/08 12:58:16;;;;;;;;;;;5.00;76.50;;;;;;5030477;28;19917;-80
2022/01/08 13:00:57;;;;;;;;;;;5.10;76.40;;;;;;5021992;28;19925;-81
2022/01/08 13:03:24;;;;;;;;;;;5.00;76.00;;;;;;5011694;28;20679;-81
2022/01/08 13:05:49;;;;;;;;;;;5.00;76.10;;;;;;5031679;28;19917;-79
2022/01/08 13:08:24;;;;;;;;;;;5.00;75.70;;;;;;5025524;28;20284;-79
2022/01/08 13:11:02;;;;;;;;;;;4.90;75.20;;;;;;5030972;28;19913;-79
2022/01/08 13:13:41;;;;;;;;;;;4.80;75.60;;;;;;5028587;28;20529;-79
2022/01/08 13:16:14;;;;;;;;;;;4.90;75.70;;;;;;5031468;28;19940;-81
2022/01/08 13:18:40;;;;;;;;;;;4.90;76.30;;;;;;5013791;28;20500;-82
2022/01/08 13:21:09;;;;;;;;;;;5.00;75.40;;;;;;5015925;28;19964;-84
2022/01/08 13:23:42;;;;;;;;;;;4.90;75.70;;;;;;5033151;28;19913;-85
2022/01/08 13:26:07;;;;;;;;;;;4.70;76.30;;;;;;5031338;28;19923;-81
2022/01/08 13:28:33;;;;;;;;;;;4.80;75.70;;;;;;5015371;28;20011;-85
2022/01/08 13:30:58;;;;;;;;;;;4.80;75.20;;;;;;5031339;28;19921;-85
2022/01/08 13:33:25;;;;;;;;;;;4.90;75.30;;;;;;5015579;28;19913;-84
2022/01/08 13:36:01;;;;;;;;;;;4.80;75.90;;;;;;5015840;28;19943;-85
2022/01/08 13:38:28;;;;;;;;;;;4.70;75.90;;;;;;5016465;28;19920;-88
2022/01/08 13:40:56;;;;;;;;;;;4.80;75.90;;;;;;5009269;28;19947;-85
2022/01/08 13:43:22;;;;;;;;;;;5.00;75.00;;;;;;5016231;28;19913;-84
2022/01/08 13:45:51;;;;;;;;;;;5.00;75.60;;;;;;5020961;28;20012;-84
2022/01/08 13:48:19;;;;;;;;;;;5.00;75.30;;;;;;5032692;28;19963;-86
2022/01/08 13:50:50;;;;;;;;;;;4.90;74.90;;;;;;5012732;28;19948;-86
2022/01/08 13:53:16;;;;;;;;;;;4.80;75.80;;;;;;5036006;28;20019;-84
2022/01/08 13:55:46;;;;;;;;;;;4.80;75.60;;;;;;5031119;28;19972;-84
2022/01/08 13:58:14;;;;;;;;;;;4.80;75.90;;;;;;5004448;28;19917;-85
2022/01/08 14:00:42;;;;;;;;;;;4.90;75.90;;;;;;5029061;28;19924;-84
2022/01/08 14:03:21;;;;;;;;;;;4.90;75.70;;;;;;5030371;28;19925;-86
2022/01/08 14:05:47;;;;;;;;;;;4.80;75.50;;;;;;5026062;28;19960;-85
2022/01/08 14:08:13;;;;;;;;;;;4.70;75.50;;;;;;5026913;28;19920;-86
2022/01/08 14:10:43;;;;;;;;;;;4.70;75.90;;;;;;5029335;28;19935;-86
2022/01/08 14:13:13;;;;;;;;;;;4.80;75.80;;;;;;5023338;28;19924;-86
2022/01/08 14:15:41;;;;;;;;;;;4.90;75.20;;;;;;5017135;28;20377;-86
2022/01/08 14:18:20;;;;;;;;;;;4.80;75.30;;;;;;5031262;28;20408;-86
2022/01/08 14:20:46;;;;;;;;;;;4.90;74.40;;;;;;5017099;28;20024;-84
2022/01/08 14:23:19;;;;;;;;;;;4.90;74.40;;;;;;5013753;28;19960;-85
2022/01/08 14:25:46;;;;;;;;;;;4.80;74.80;;;;;;5014230;28;19913;-83
2022/01/08 14:28:22;;;;;;;;;;;4.70;75.10;;;;;;5018660;28;19982;-84
2022/01/08 14:30:48;;;;;;;;;;;4.80;74.70;;;;;;5019323;28;20262;-82
2022/01/08 14:33:14;;;;;;;;;;;4.90;74.30;;;;;;5016053;28;20009;-83
2022/01/08 14:35:39;;;;;;;;;;;4.90;73.90;;;;;;4999385;28;20324;-83
2022/01/08 14:38:05;;;;;;;;;;;4.90;74.00;;;;;;5011917;28;20002;-83
2022/01/08 14:40:32;;;;;;;;;;;4.70;74.50;;;;;;5016236;28;19917;-84
2022/01/08 14:43:00;;;;;;;;;;;4.60;74.90;;;;;;5041998;28;19913;-85
2022/01/08 14:45:26;;;;;;;;;;;4.70;74.80;;;;;;5017369;28;19913;-86
2022/01/08 14:47:52;;;;;;;;;;;4.50;75.50;;;;;;5015613;28;20445;-82
2022/01/08 14:50:22;;;;;;;;;;;4.60;75.90;;;;;;5016613;28;19956;-83
2022/01/08 14:52:48;;;;;;;;;;;4.60;75.30;;;;;;5035951;28;19916;-84
2022/01/08 14:55:15;;;;;;;;;;;4.60;75.40;;;;;;5050499;28;19917;-84